Time;durP1;ratioP1;P1;durP2;ratioP2;P2;SDS_P1;SDS_P2;PMS_P1;PMS_P2;Temp;Humidity;BMP_temperature;BMP_pressure;BME280_temperature;BME280_humidity;BME280_pressure;Samples;Min_cycle;Max_cycle;Signal;HPM_P1;HPM_P2
2022/04/23 00:01:46;;;;;;;15.20;12.55;;;11.60;99.90;;;;;;5025814;28;20053;-59
2022/04/23 00:04:13;;;;;;;15.57;13.15;;;11.50;99.90;;;;;;5022681;28;20592;-59
2022/04/23 00:06:40;;;;;;;14.18;12.70;;;11.50;99.90;;;;;;4999547;28;20062;-59
2022/04/23 00:09:06;;;;;;;15.07;13.30;;;11.40;99.90;;;;;;5016486;28;20097;-59
2022/04/23 00:11:32;;;;;;;15.52;13.57;;;11.40;99.90;;;;;;5024330;28;20049;-59
2022/04/23 00:13:59;;;;;;;13.82;12.43;;;11.40;99.90;;;;;;5022250;28;20576;-59
2022/04/23 00:16:26;;;;;;;14.88;13.48;;;11.40;99.90;;;;;;5004884;28;20850;-57
2022/04/23 00:18:52;;;;;;;15.05;13.55;;;11.40;99.90;;;;;;5023846;28;20045;-53
2022/04/23 00:21:18;;;;;;;13.88;12.48;;;11.30;99.90;;;;;;5004842;28;20370;-53
2022/04/23 00:23:47;;;;;;;16.40;14.73;;;11.30;99.90;;;;;;5022236;28;20096;-55
2022/04/23 00:26:13;;;;;;;17.48;14.55;;;11.30;99.90;;;;;;5005987;28;20054;-55
2022/04/23 00:28:40;;;;;;;17.45;14.48;;;11.30;99.90;;;;;;5021613;28;20049;-55
2022/04/23 00:31:06;;;;;;;15.50;13.88;;;11.20;99.90;;;;;;5018679;28;20726;-53
2022/04/23 00:33:37;;;;;;;16.10;14.50;;;11.20;99.90;;;;;;5021462;28;20057;-60
2022/04/23 00:36:06;;;;;;;16.05;14.35;;;11.20;99.90;;;;;;5007716;28;20050;-59
2022/04/23 00:38:36;;;;;;;16.33;13.82;;;11.10;99.90;;;;;;5007308;28;20126;-54
2022/04/23 00:41:02;;;;;;;17.40;15.60;;;11.10;99.90;;;;;;5022915;28;20053;-53
2022/04/23 00:43:30;;;;;;;16.75;15.05;;;11.10;99.90;;;;;;5005258;28;20170;-59
2022/04/23 00:45:57;;;;;;;17.48;15.68;;;11.00;99.90;;;;;;5013725;28;20457;-59
2022/04/23 00:48:26;;;;;;;17.73;15.70;;;11.00;99.90;;;;;;5023816;28;20050;-59
2022/04/23 00:50:55;;;;;;;18.15;16.30;;;11.00;99.90;;;;;;5021349;28;20045;-53
2022/04/23 00:53:23;;;;;;;16.40;14.75;;;10.90;99.90;;;;;;5022167;28;20072;-54
2022/04/23 00:55:52;;;;;;;16.60;14.93;;;10.90;99.90;;;;;;5019718;28;20453;-53
2022/04/23 00:58:20;;;;;;;17.00;15.23;;;10.80;99.90;;;;;;4958328;28;20055;-53
2022/04/23 01:00:47;;;;;;;16.73;14.98;;;10.80;99.90;;;;;;5021545;28;20053;-55
2022/04/23 01:03:13;;;;;;;18.00;16.10;;;10.80;99.90;;;;;;5013314;28;20167;-55
2022/04/23 01:05:46;;;;;;;17.85;16.05;;;10.70;99.90;;;;;;5018530;28;20693;-55
2022/04/23 01:08:18;;;;;;;17.25;15.45;;;10.70;99.90;;;;;;5023928;28;20124;-54
2022/04/23 01:10:45;;;;;;;18.98;16.55;;;10.60;99.90;;;;;;5016183;28;20050;-60
2022/04/23 01:13:14;;;;;;;17.30;15.70;;;10.60;99.90;;;;;;4994994;28;20383;-60
2022/04/23 01:16:05;;;;;;;17.67;15.60;;;10.60;99.90;;;;;;5019470;28;20079;-59
2022/04/23 01:18:31;;;;;;;17.40;15.70;;;10.50;99.90;;;;;;5031557;28;20063;-60
2022/04/23 01:21:02;;;;;;;15.73;14.13;;;10.50;99.90;;;;;;5021471;28;20556;-59
2022/04/23 01:23:29;;;;;;;16.58;14.88;;;10.40;99.90;;;;;;5019467;28;20401;-60
2022/04/23 01:25:55;;;;;;;18.92;16.85;;;10.40;99.90;;;;;;5019816;28;20046;-60
2022/04/23 01:28:23;;;;;;;19.60;17.52;;;10.40;99.90;;;;;;5018605;28;20084;-60
2022/04/23 01:30:54;;;;;;;18.52;16.65;;;10.40;99.90;;;;;;5019799;28;20049;-60
2022/04/23 01:33:20;;;;;;;20.00;17.80;;;10.40;99.90;;;;;;5019903;28;20049;-60
2022/04/23 01:35:47;;;;;;;17.67;15.93;;;10.30;99.90;;;;;;5020737;28;20123;-60
2022/04/23 01:38:13;;;;;;;18.10;16.02;;;10.30;99.90;;;;;;5002359;28;20081;-59
2022/04/23 01:40:40;;;;;;;21.30;17.08;;;10.20;99.90;;;;;;5022454;28;20049;-59
2022/04/23 01:43:08;;;;;;;18.48;16.58;;;10.20;99.90;;;;;;5004961;28;20057;-59
2022/04/23 01:45:35;;;;;;;17.85;16.08;;;10.20;99.90;;;;;;5021132;28;20501;-61
2022/04/23 01:48:01;;;;;;;17.67;16.00;;;10.20;99.90;;;;;;5019529;28;20135;-59
2022/04/23 01:50:27;;;;;;;16.63;14.93;;;10.20;99.90;;;;;;5003178;28;20042;-59
2022/04/23 01:52:53;;;;;;;18.00;16.20;;;10.20;99.90;;;;;;5003003;28;20048;-59
2022/04/23 01:55:19;;;;;;;16.83;15.13;;;10.10;99.90;;;;;;5021147;28;20755;-59
2022/04/23 01:57:45;;;;;;;17.35;15.65;;;10.20;99.90;;;;;;5020134;28;20045;-59
2022/04/23 02:00:14;;;;;;;17.55;15.75;;;10.10;99.90;;;;;;5017902;28;20049;-59
2022/04/23 02:02:41;;;;;;;17.02;15.43;;;10.10;99.90;;;;;;5023313;28;20041;-59
2022/04/23 02:05:08;;;;;;;16.30;14.70;;;10.20;99.90;;;;;;4977883;28;20398;-59
2022/04/23 02:07:45;;;;;;;16.85;14.93;;;10.10;99.90;;;;;;4997423;28;20176;-59
2022/04/23 02:10:14;;;;;;;17.33;15.10;;;10.10;99.90;;;;;;5013617;28;20085;-59
2022/04/23 02:12:42;;;;;;;16.67;14.98;;;10.10;99.90;;;;;;5015351;28;20397;-60
2022/04/23 02:15:14;;;;;;;15.40;12.82;;;10.10;99.90;;;;;;5021495;28;20463;-59
2022/04/23 02:17:43;;;;;;;16.70;13.35;;;10.10;99.90;;;;;;5021284;28;20049;-59
2022/04/23 02:20:11;;;;;;;16.23;14.32;;;10.10;99.90;;;;;;5016720;28;20562;-59
2022/04/23 02:22:38;;;;;;;14.95;13.45;;;10.10;99.90;;;;;;4984570;28;20050;-54
2022/04/23 02:25:05;;;;;;;14.65;13.05;;;10.10;99.90;;;;;;5005828;28;20069;-54
2022/04/23 02:27:44;;;;;;;14.63;12.82;;;10.10;99.90;;;;;;5022074;28;20108;-54
2022/04/23 02:30:12;;;;;;;14.63;13.10;;;10.00;99.90;;;;;;5014064;28;20056;-54
2022/04/23 02:32:38;;;;;;;13.90;12.27;;;10.10;99.90;;;;;;5003846;28;20649;-54
2022/04/23 02:35:05;;;;;;;16.20;13.73;;;10.00;99.90;;;;;;5018279;28;20265;-56
2022/04/23 02:37:35;;;;;;;14.93;12.93;;;10.00;99.90;;;;;;5020610;28;20048;-55
2022/04/23 02:40:05;;;;;;;16.58;13.27;;;10.00;99.90;;;;;;5003180;28;20050;-53
2022/04/23 02:42:33;;;;;;;15.38;13.77;;;10.00;99.90;;;;;;4987506;28;20104;-53
2022/04/23 02:45:01;;;;;;;15.20;13.23;;;10.00;99.90;;;;;;5014434;28;20738;-55
2022/04/23 02:47:40;;;;;;;15.50;11.55;;;10.00;99.90;;;;;;5019093;28;20046;-55
2022/04/23 02:50:07;;;;;;;15.48;12.88;;;9.90;99.90;;;;;;5019237;28;20053;-54
2022/04/23 02:52:33;;;;;;;15.02;13.40;;;9.90;99.90;;;;;;5002875;28;20079;-55
2022/04/23 02:54:59;;;;;;;15.15;13.52;;;9.90;99.90;;;;;;5004978;28;20103;-54
2022/04/23 02:57:25;;;;;;;14.65;13.18;;;9.90;99.90;;;;;;5018040;28;20045;-53
2022/04/23 02:59:51;;;;;;;15.10;13.52;;;9.90;99.90;;;;;;4998870;28;20046;-55
2022/04/23 03:02:17;;;;;;;15.13;13.60;;;9.80;99.90;;;;;;5009777;28;20108;-54
2022/04/23 03:04:43;;;;;;;17.52;13.30;;;9.80;99.90;;;;;;5021252;28;20089;-54
2022/04/23 03:07:12;;;;;;;17.20;13.88;;;9.80;99.90;;;;;;5020466;28;20052;-53
2022/04/23 03:09:39;;;;;;;15.43;13.77;;;9.80;99.90;;;;;;5014460;28;20476;-54
2022/04/23 03:12:05;;;;;;;19.30;15.48;;;9.80;99.90;;;;;;5020336;28;20049;-55
2022/04/23 03:14:32;;;;;;;16.77;12.95;;;9.80;99.90;;;;;;5006755;28;20138;-55
2022/04/23 03:16:58;;;;;;;18.92;14.60;;;9.70;99.90;;;;;;5020364;28;20084;-54
2022/04/23 03:19:24;;;;;;;15.52;13.95;;;9.70;99.90;;;;;;5006011;28;20041;-51
2022/04/23 03:21:51;;;;;;;15.63;14.02;;;9.60;99.90;;;;;;5016267;28;20401;-52
2022/04/23 03:24:17;;;;;;;17.63;13.75;;;9.60;99.90;;;;;;5023172;28;20053;-55
2022/04/23 03:26:45;;;;;;;18.40;14.05;;;9.60;99.90;;;;;;5021002;28;20132;-54
2022/04/23 03:29:11;;;;;;;17.00;13.88;;;9.50;99.90;;;;;;5003997;28;20091;-55
2022/04/23 03:31:37;;;;;;;15.85;12.73;;;9.50;99.90;;;;;;5022451;28;20123;-59
2022/04/23 03:34:03;;;;;;;15.77;14.05;;;9.50;99.90;;;;;;5024574;28;20131;-58
2022/04/23 03:36:30;;;;;;;16.17;13.85;;;9.50;99.90;;;;;;5024212;28;20045;-59
2022/04/23 03:38:56;;;;;;;15.48;13.23;;;9.40;99.90;;;;;;5022979;28;20176;-52
2022/04/23 03:41:23;;;;;;;18.13;13.95;;;9.40;99.90;;;;;;4975166;28;20463;-54
2022/04/23 03:43:50;;;;;;;15.52;13.82;;;9.40;99.90;;;;;;5000991;28;20116;-54
2022/04/23 03:46:16;;;;;;;17.35;14.60;;;9.40;99.90;;;;;;5023179;28;20095;-53
2022/04/23 03:48:42;;;;;;;16.27;14.57;;;9.40;99.90;;;;;;5021085;28;20501;-53
2022/04/23 03:51:08;;;;;;;15.93;14.32;;;9.40;99.90;;;;;;5022129;28;20124;-55
2022/04/23 03:53:34;;;;;;;15.57;13.98;;;9.30;99.90;;;;;;5023602;28;20071;-58
2022/04/23 03:56:00;;;;;;;15.48;13.60;;;9.30;99.90;;;;;;5022486;28;20052;-55
2022/04/23 03:58:28;;;;;;;16.15;14.25;;;9.30;99.90;;;;;;5022418;28;20054;-55
2022/04/23 04:00:54;;;;;;;16.13;14.38;;;9.20;99.90;;;;;;5006088;28;20399;-59
2022/04/23 04:03:20;;;;;;;15.43;13.85;;;9.20;99.90;;;;;;5020309;28;20820;-54
2022/04/23 04:05:47;;;;;;;15.35;13.75;;;9.20;99.90;;;;;;5021151;28;20052;-55
2022/04/23 04:08:14;;;;;;;14.80;13.30;;;9.20;99.90;;;;;;5020746;28;20050;-58
2022/04/23 04:10:40;;;;;;;15.85;13.45;;;9.20;99.90;;;;;;5002299;28;20058;-52
2022/04/23 04:13:06;;;;;;;14.85;13.35;;;9.20;99.90;;;;;;5002915;28;20520;-59
2022/04/23 04:15:33;;;;;;;14.48;13.07;;;9.20;99.90;;;;;;5004602;28;20049;-52
2022/04/23 04:17:59;;;;;;;16.27;13.23;;;9.10;99.90;;;;;;5006264;28;20045;-53
2022/04/23 04:20:25;;;;;;;16.67;14.82;;;9.10;99.90;;;;;;5018502;28;20809;-51
2022/04/23 04:22:52;;;;;;;15.35;13.82;;;9.10;99.90;;;;;;5017013;28;20053;-52
2022/04/23 04:25:19;;;;;;;13.82;12.48;;;9.10;99.90;;;;;;5020955;28;20132;-54
2022/04/23 04:27:46;;;;;;;15.52;12.63;;;9.10;99.90;;;;;;5023879;28;20794;-54
2022/04/23 04:30:13;;;;;;;14.98;13.32;;;9.10;99.90;;;;;;4995708;28;20041;-55
2022/04/23 04:32:41;;;;;;;14.52;13.05;;;9.00;99.90;;;;;;5023980;28;20048;-53
2022/04/23 04:35:09;;;;;;;13.77;12.35;;;9.00;99.90;;;;;;5016643;28;20054;-57
2022/04/23 04:37:36;;;;;;;12.75;10.85;;;9.00;99.90;;;;;;5024171;28;20046;-58
2022/04/23 04:40:04;;;;;;;14.95;13.43;;;9.00;99.90;;;;;;4986674;28;20068;-57
2022/04/23 04:42:30;;;;;;;15.63;13.27;;;9.00;99.90;;;;;;5021226;28;20791;-58
2022/04/23 04:44:56;;;;;;;13.85;12.40;;;9.10;99.90;;;;;;5021051;28;20493;-58
2022/04/23 04:47:22;;;;;;;14.10;12.40;;;9.00;99.90;;;;;;5021464;28;20489;-57
2022/04/23 04:49:48;;;;;;;14.65;13.13;;;9.10;99.90;;;;;;5019574;28;20049;-58
2022/04/23 04:52:14;;;;;;;15.07;13.23;;;9.10;99.90;;;;;;5022298;28;20209;-58
2022/04/23 04:54:40;;;;;;;15.80;12.55;;;9.00;99.90;;;;;;5003637;28;20050;-58
2022/04/23 04:57:06;;;;;;;14.68;13.15;;;9.00;99.90;;;;;;5019394;28;20050;-58
2022/04/23 04:59:33;;;;;;;16.20;13.45;;;9.10;99.90;;;;;;5018743;28;20081;-58
2022/04/23 05:02:00;;;;;;;14.77;13.27;;;9.10;99.90;;;;;;5023533;28;20527;-58
2022/04/23 05:04:26;;;;;;;13.85;12.43;;;9.10;99.90;;;;;;5001501;28;20093;-59
2022/04/23 05:06:52;;;;;;;13.40;12.00;;;9.10;99.90;;;;;;5020922;28;20512;-58
2022/04/23 05:09:18;;;;;;;14.80;13.40;;;9.10;99.90;;;;;;5020221;28;20045;-58
2022/04/23 05:11:44;;;;;;;14.07;11.95;;;9.10;99.90;;;;;;5022651;28;20076;-58
2022/04/23 05:14:10;;;;;;;14.95;12.45;;;9.10;99.90;;;;;;5004169;28;20049;-58
2022/04/23 05:16:36;;;;;;;13.13;11.68;;;9.20;99.90;;;;;;5019269;28;20087;-58
2022/04/23 05:19:03;;;;;;;13.40;12.10;;;9.20;99.90;;;;;;5021570;28;20045;-58
2022/04/23 05:21:29;;;;;;;13.02;11.73;;;9.30;99.90;;;;;;5017592;28;20065;-54
2022/04/23 05:23:55;;;;;;;13.57;12.20;;;9.80;99.90;;;;;;5010197;28;20065;-59
2022/04/23 05:26:21;;;;;;;14.05;11.60;;;10.10;99.90;;;;;;4998074;28;20513;-58
2022/04/23 05:28:47;;;;;;;11.73;10.35;;;10.40;99.90;;;;;;5020627;28;20056;-56
2022/04/23 05:31:14;;;;;;;14.82;11.70;;;10.50;99.90;;;;;;5019194;28;20726;-50
2022/04/23 05:33:40;;;;;;;10.82;9.40;;;10.60;99.90;;;;;;5019186;28;20567;-55
2022/04/23 05:36:06;;;;;;;15.63;11.57;;;10.70;99.90;;;;;;5017493;28;20060;-55
2022/04/23 05:38:36;;;;;;;11.82;10.73;;;10.80;99.90;;;;;;5004582;28;20129;-55
2022/04/23 05:41:03;;;;;;;12.00;10.80;;;10.90;99.90;;;;;;5020163;28;20087;-56
2022/04/23 05:43:30;;;;;;;9.70;8.70;;;10.90;99.90;;;;;;5019608;28;20465;-55
2022/04/23 05:46:00;;;;;;;12.15;11.00;;;11.00;99.90;;;;;;5023102;28;20033;-55
2022/04/23 05:48:27;;;;;;;10.55;9.55;;;11.20;99.90;;;;;;5015138;28;20061;-61
2022/04/23 05:50:53;;;;;;;11.63;10.52;;;11.20;99.90;;;;;;5003725;28;20536;-62
2022/04/23 05:53:19;;;;;;;12.32;10.60;;;11.20;99.90;;;;;;5013264;28;20492;-65
2022/04/23 05:55:45;;;;;;;11.85;10.75;;;11.30;99.90;;;;;;5021874;28;20068;-64
2022/04/23 05:58:12;;;;;;;11.65;10.45;;;11.40;99.90;;;;;;5015175;28;20546;-63
2022/04/23 06:00:38;;;;;;;12.07;10.88;;;11.40;99.90;;;;;;5015563;28;20057;-63
2022/04/23 06:03:04;;;;;;;12.35;11.05;;;11.40;99.90;;;;;;5019103;28;20500;-58
2022/04/23 06:05:30;;;;;;;15.57;13.98;;;11.30;99.90;;;;;;5009299;28;20053;-57
2022/04/23 06:07:56;;;;;;;11.88;10.68;;;11.40;99.90;;;;;;5003765;28;20145;-56
2022/04/23 06:10:22;;;;;;;12.23;11.07;;;11.50;99.90;;;;;;5018028;28;20045;-62
2022/04/23 06:12:48;;;;;;;17.50;15.70;;;11.40;99.90;;;;;;5003396;28;20050;-63
2022/04/23 06:15:14;;;;;;;14.43;12.93;;;11.40;99.90;;;;;;4996359;28;20183;-63
2022/04/23 06:17:40;;;;;;;11.52;10.38;;;11.50;99.90;;;;;;5022825;28;20053;-63
2022/04/23 06:20:07;;;;;;;18.08;16.25;;;11.40;99.90;;;;;;5022708;28;20509;-63
2022/04/23 06:22:33;;;;;;;18.60;16.80;;;11.50;99.90;;;;;;5019174;28;20061;-63
2022/04/23 06:24:59;;;;;;;13.20;11.95;;;11.60;99.90;;;;;;5019981;28;20537;-63
2022/04/23 06:27:25;;;;;;;13.68;12.15;;;11.70;99.90;;;;;;5037835;28;20084;-61
2022/04/23 06:29:51;;;;;;;18.38;16.48;;;11.70;99.90;;;;;;4987399;28;20096;-61
2022/04/23 06:32:17;;;;;;;13.18;10.30;;;11.80;99.90;;;;;;5021933;28;20068;-62
2022/04/23 06:34:44;;;;;;;17.25;15.40;;;11.90;99.90;;;;;;5018352;28;20064;-62
2022/04/23 06:37:10;;;;;;;23.85;21.50;;;12.00;99.90;;;;;;5015873;28;20058;-62
2022/04/23 06:39:36;;;;;;;15.68;14.05;;;12.00;99.90;;;;;;5016229;28;20136;-61
2022/04/23 06:42:03;;;;;;;13.40;12.07;;;12.20;99.90;;;;;;5012925;28;20085;-62
2022/04/23 06:44:29;;;;;;;13.93;12.38;;;12.10;99.90;;;;;;5010242;28;20045;-62
2022/04/23 06:46:55;;;;;;;13.68;12.15;;;12.30;99.90;;;;;;5019630;28;20451;-62
2022/04/23 06:49:23;;;;;;;12.90;11.35;;;12.50;99.90;;;;;;5012697;28;20493;-56
2022/04/23 06:51:49;;;;;;;13.23;11.10;;;12.50;99.90;;;;;;5013603;28;20501;-57
2022/04/23 06:54:15;;;;;;;16.70;13.02;;;12.70;99.90;;;;;;5015990;28;20811;-56
2022/04/23 06:56:41;;;;;;;11.48;8.93;;;12.60;99.90;;;;;;5016943;28;20052;-57
2022/04/23 06:59:07;;;;;;;15.57;11.98;;;12.70;99.90;;;;;;5002013;28;20857;-56
2022/04/23 07:01:33;;;;;;;12.82;11.57;;;13.00;99.90;;;;;;5022965;28;20320;-57
2022/04/23 07:03:59;;;;;;;38.22;34.28;;;13.10;99.90;;;;;;5024374;28;20600;-56
2022/04/23 07:06:25;;;;;;;77.43;69.50;;;13.20;99.90;;;;;;5019184;28;20055;-58
2022/04/23 07:08:51;;;;;;;45.88;41.03;;;13.70;99.90;;;;;;5024649;28;20052;-57
2022/04/23 07:11:17;;;;;;;13.70;12.35;;;13.90;99.90;;;;;;5022310;28;20766;-58
2022/04/23 07:13:43;;;;;;;28.30;25.40;;;14.10;99.90;;;;;;5025482;28;20623;-58
2022/04/23 07:16:11;;;;;;;14.95;12.73;;;14.30;99.90;;;;;;5023215;28;20049;-58
2022/04/23 07:18:41;;;;;;;18.92;17.17;;;14.60;99.90;;;;;;5014541;28;20076;-58
2022/04/23 07:21:07;;;;;;;12.38;11.07;;;14.80;99.90;;;;;;5022409;28;20064;-59
2022/04/23 07:26:18;;;;;;;14.73;13.00;;;14.90;99.90;;;;;;5021653;28;20085;-57
2022/04/23 07:28:44;;;;;;;12.85;11.23;;;14.90;99.90;;;;;;5016695;28;20046;-57
2022/04/23 07:31:10;;;;;;;17.73;15.90;;;14.90;99.90;;;;;;4998284;28;20041;-57
2022/04/23 07:39:13;;;;;;;12.82;10.60;;;15.30;99.90;;;;;;5006603;28;20046;-57
2022/04/23 07:41:39;;;;;;;12.93;11.35;;;15.50;99.90;;;;;;5005030;28;20054;-57
2022/04/23 07:44:05;;;;;;;13.75;10.88;;;15.50;99.90;;;;;;4991864;28;20045;-57
2022/04/23 07:46:31;;;;;;;17.38;15.52;;;15.70;91.60;;;;;;5006493;28;20209;-57
2022/04/23 07:48:58;;;;;;;11.88;10.60;;;16.00;80.10;;;;;;5005876;28;20153;-57
2022/04/23 07:51:27;;;;;;;12.52;9.70;;;16.30;64.60;;;;;;5004684;28;20049;-57
2022/04/23 07:53:55;;;;;;;12.77;11.13;;;16.50;57.30;;;;;;4991005;28;20049;-57
2022/04/23 07:56:22;;;;;;;11.13;9.13;;;16.10;56.90;;;;;;5005698;28;20573;-58
2022/04/23 07:58:48;;;;;;;12.80;9.48;;;16.00;55.60;;;;;;5005103;28;20129;-58
2022/04/23 08:01:14;;;;;;;10.20;9.13;;;16.00;55.30;;;;;;5015423;28;20060;-58
2022/04/23 08:03:43;;;;;;;11.07;9.88;;;16.10;56.20;;;;;;5024850;28;20060;-58
2022/04/23 08:06:10;;;;;;;7.80;7.00;;;16.20;55.70;;;;;;5004869;28;20054;-55
2022/04/23 08:08:37;;;;;;;9.57;8.32;;;16.50;53.70;;;;;;5017904;28;20114;-55
2022/04/23 08:11:03;;;;;;;10.30;8.18;;;16.40;53.20;;;;;;5006978;28;20045;-58
2022/04/23 08:13:29;;;;;;;10.00;8.30;;;16.50;52.80;;;;;;5005085;28;20042;-56
2022/04/23 08:15:55;;;;;;;10.80;9.18;;;16.50;53.10;;;;;;5005114;28;20132;-56
2022/04/23 08:18:22;;;;;;;10.07;8.07;;;17.00;52.90;;;;;;5004970;28;20046;-56
2022/04/23 08:20:48;;;;;;;11.02;8.25;;;17.00;51.60;;;;;;5003577;28;20045;-56
2022/04/23 08:23:16;;;;;;;11.73;8.90;;;17.20;51.30;;;;;;5013082;28;20734;-55
2022/04/23 08:25:42;;;;;;;11.30;7.43;;;17.10;50.40;;;;;;5003487;28;20060;-56
2022/04/23 08:30:53;;;;;;;10.80;8.18;;;17.50;50.40;;;;;;5003381;28;20042;-56
2022/04/23 08:33:19;;;;;;;10.68;7.35;;;17.20;49.20;;;;;;5004848;28;20446;-56
2022/04/23 08:35:45;;;;;;;11.13;8.40;;;17.10;49.30;;;;;;5022594;28;20081;-56
2022/04/23 08:38:11;;;;;;;12.32;8.95;;;17.10;49.70;;;;;;4993912;28;20448;-56
2022/04/23 08:40:43;;;;;;;9.85;8.90;;;17.10;49.70;;;;;;4987196;28;20050;-56
2022/04/23 08:43:09;;;;;;;9.98;8.88;;;17.30;50.10;;;;;;5003656;28;20052;-56
2022/04/23 08:45:39;;;;;;;9.57;7.72;;;17.70;50.00;;;;;;5003844;28;20169;-56
2022/04/23 08:48:15;;;;;;;9.75;7.97;;;17.60;47.70;;;;;;5004562;28;20049;-61
2022/04/23 08:50:44;;;;;;;8.88;8.02;;;17.50;48.60;;;;;;5003972;28;20127;-57
2022/04/23 08:53:27;;;;;;;10.13;9.10;;;17.60;48.60;;;;;;5005078;28;20074;-57
2022/04/23 08:55:53;;;;;;;9.48;8.10;;;17.40;48.20;;;;;;5004947;28;20116;-57
2022/04/23 08:58:19;;;;;;;9.07;8.02;;;17.20;48.20;;;;;;5004668;28;20045;-56
2022/04/23 09:00:45;;;;;;;11.00;9.73;;;17.40;49.20;;;;;;5004387;28;20049;-56
2022/04/23 09:03:16;;;;;;;12.18;9.98;;;17.40;49.40;;;;;;5003191;28;20045;-57
2022/04/23 09:05:43;;;;;;;10.45;8.45;;;18.00;48.40;;;;;;5002554;28;20117;-56
2022/04/23 09:08:10;;;;;;;10.27;9.15;;;18.30;48.00;;;;;;5003984;28;20874;-57
2022/04/23 09:10:46;;;;;;;10.43;9.32;;;18.30;47.00;;;;;;5004944;28;20037;-57
2022/04/23 09:13:31;;;;;;;11.20;10.20;;;18.50;47.10;;;;;;4988953;28;20092;-57
2022/04/23 09:24:51;;;;;;;10.50;9.50;;;19.00;45.70;;;;;;4988772;28;20065;-57
2022/04/23 09:27:17;;;;;;;10.70;9.65;;;18.70;46.00;;;;;;5004010;28;20552;-57
2022/04/23 09:29:59;;;;;;;10.05;9.05;;;18.80;46.00;;;;;;5018777;28;20620;-63
2022/04/23 09:32:27;;;;;;;11.52;10.30;;;18.80;45.70;;;;;;5004116;28;20057;-63
2022/04/23 09:35:19;;;;;;;10.60;9.57;;;18.90;46.20;;;;;;5011735;28;20485;-57
2022/04/23 09:40:30;;;;;;;9.60;8.63;;;19.40;46.50;;;;;;5011986;28;20046;-62
2022/04/23 09:43:00;;;;;;;10.55;9.63;;;19.40;45.00;;;;;;5002300;28;20046;-57
2022/04/23 09:45:28;;;;;;;13.70;9.38;;;19.60;46.00;;;;;;5003840;28;20053;-57
2022/04/23 09:48:15;;;;;;;12.02;10.30;;;19.50;45.10;;;;;;5018633;28;20052;-57
2022/04/23 09:50:47;;;;;;;10.95;8.57;;;19.60;44.50;;;;;;5003870;28;20048;-58
2022/04/23 09:53:15;;;;;;;10.25;9.18;;;19.50;44.10;;;;;;5002483;28;20185;-57
2022/04/23 09:55:43;;;;;;;11.73;10.25;;;19.40;43.90;;;;;;5004712;28;20042;-57
2022/04/23 09:58:10;;;;;;;10.18;9.00;;;19.20;44.70;;;;;;5004616;28;20390;-57
2022/04/23 10:00:38;;;;;;;10.23;8.40;;;19.70;45.10;;;;;;5004913;28;20054;-57
2022/04/23 10:03:08;;;;;;;11.57;9.68;;;19.90;44.40;;;;;;5004210;28;20188;-57
2022/04/23 10:05:40;;;;;;;10.33;9.27;;;20.50;44.30;;;;;;4988971;28;20175;-57
2022/04/23 10:08:11;;;;;;;;;;;20.20;43.70;;;;;;5003573;28;20404;-56
2022/04/23 10:10:44;;;;;;;10.32;9.32;;;20.50;43.10;;;;;;5002360;28;19925;-57
2022/04/23 10:13:12;;;;;;;10.25;9.00;;;20.10;43.30;;;;;;4987570;28;20092;-57
2022/04/23 10:15:40;;;;;;;10.25;9.35;;;20.60;43.60;;;;;;5004073;28;20061;-57
2022/04/23 10:18:09;;;;;;;10.93;9.07;;;20.60;43.20;;;;;;5005159;28;20054;-57
2022/04/23 10:20:37;;;;;;;11.57;10.18;;;20.30;42.30;;;;;;5005368;28;20885;-56
2022/04/23 10:23:21;;;;;;;11.80;10.00;;;20.60;42.80;;;;;;4990999;28;20049;-57
2022/04/23 10:25:49;;;;;;;10.88;9.98;;;20.70;42.40;;;;;;5005815;28;20487;-56
2022/04/23 10:28:17;;;;;;;10.73;9.65;;;20.40;42.50;;;;;;5020306;28;20424;-56
2022/04/23 10:30:47;;;;;;;12.85;9.15;;;20.60;41.90;;;;;;5020155;28;20049;-56
2022/04/23 10:33:26;;;;;;;15.00;9.23;;;20.70;41.90;;;;;;5022003;28;21111;-57
2022/04/23 10:36:10;;;;;;;10.80;9.15;;;21.20;41.00;;;;;;5006125;28;20124;-56
2022/04/23 10:38:42;;;;;;;11.20;8.85;;;21.80;40.40;;;;;;5005805;28;20056;-56
2022/04/23 10:41:11;;;;;;;9.77;8.77;;;21.60;39.80;;;;;;5012115;28;20702;-57
2022/04/23 10:43:59;;;;;;;11.45;8.65;;;21.80;39.60;;;;;;5012041;28;20549;-57
2022/04/23 10:46:37;;;;;;;10.27;9.07;;;21.50;40.10;;;;;;5011110;28;20053;-56
2022/04/23 10:49:30;;;;;;;11.70;10.60;;;21.80;39.40;;;;;;5012959;28;20049;-57
2022/04/23 10:51:57;;;;;;;10.77;9.43;;;21.80;40.20;;;;;;5012594;28;20228;-56
2022/04/23 10:54:47;;;;;;;15.35;11.55;;;21.80;39.30;;;;;;5017222;28;20057;-57
2022/04/23 10:57:14;;;;;;;14.60;12.10;;;21.90;38.90;;;;;;5017567;28;20084;-57
2022/04/23 10:59:43;;;;;;;9.25;8.32;;;21.70;38.80;;;;;;5010840;28;21339;-57
2022/04/23 11:02:32;;;;;;;12.80;11.10;;;22.10;39.10;;;;;;5020905;28;20057;-57
2022/04/23 11:14:05;;;;;;;13.30;11.93;;;21.30;38.50;;;;;;5005750;28;20070;-61
2022/04/23 11:16:31;;;;;;;9.25;6.85;;;21.40;38.90;;;;;;5014755;28;20065;-62
2022/04/23 11:18:59;;;;;;;10.10;9.10;;;21.50;37.80;;;;;;5008339;28;20633;-62
2022/04/23 11:21:33;;;;;;;11.25;8.43;;;21.70;38.60;;;;;;5023050;28;20049;-60
2022/04/23 11:24:02;;;;;;;15.35;10.43;;;21.20;38.30;;;;;;5007224;28;20056;-62
2022/04/23 11:26:47;;;;;;;9.02;8.02;;;21.60;39.00;;;;;;5012073;28;20056;-63
2022/04/23 11:29:14;;;;;;;10.07;9.13;;;21.80;38.10;;;;;;5010510;28;20259;-57
2022/04/23 11:31:41;;;;;;;11.68;8.23;;;22.20;38.40;;;;;;5003336;28;20133;-57
2022/04/23 11:34:07;;;;;;;13.50;12.23;;;22.40;38.00;;;;;;5020376;28;20046;-57
2022/04/23 11:36:35;;;;;;;16.80;15.02;;;22.60;38.20;;;;;;5014281;28;20454;-56
2022/04/23 11:39:10;;;;;;;18.42;14.88;;;22.50;38.40;;;;;;5015138;28;20045;-56
2022/04/23 11:41:48;;;;;;;12.95;11.70;;;22.60;37.80;;;;;;5009999;28;20619;-57
2022/04/23 11:44:16;;;;;;;16.48;11.93;;;22.40;36.30;;;;;;5008999;28;20052;-67
2022/04/23 11:46:43;;;;;;;11.63;8.90;;;22.40;37.50;;;;;;4998210;28;20045;-66
2022/04/23 11:49:09;;;;;;;12.32;10.45;;;22.00;38.20;;;;;;5000069;28;20037;-65
2022/04/23 11:51:40;;;;;;;12.93;9.27;;;22.90;38.10;;;;;;4997657;28;20110;-65
2022/04/23 11:54:06;;;;;;;10.93;7.72;;;23.20;36.90;;;;;;5013819;28;20060;-63
2022/04/23 11:56:33;;;;;;;9.65;8.63;;;23.00;36.10;;;;;;5012499;28;20046;-55
2022/04/23 11:59:09;;;;;;;21.10;13.18;;;22.90;35.90;;;;;;5013071;28;20406;-53
2022/04/23 12:01:38;;;;;;;19.45;17.38;;;23.10;36.70;;;;;;5011251;28;20516;-55
2022/04/23 12:04:04;;;;;;;14.00;12.65;;;23.40;36.30;;;;;;4991411;28;20054;-55
2022/04/23 12:06:44;;;;;;;17.27;13.68;;;23.10;35.50;;;;;;5013139;28;20141;-56
2022/04/23 12:09:11;;;;;;;11.90;8.90;;;23.00;35.30;;;;;;5009023;28;20048;-57
2022/04/23 12:11:38;;;;;;;7.82;7.03;;;22.70;34.50;;;;;;5012171;28;20801;-56
2022/04/23 12:14:05;;;;;;;8.20;7.25;;;22.80;34.80;;;;;;5015844;28;20414;-56
2022/04/23 12:16:32;;;;;;;7.75;7.05;;;22.40;35.10;;;;;;5010631;28;20537;-59
2022/04/23 12:19:10;;;;;;;9.85;6.85;;;22.60;34.90;;;;;;5014368;28;20103;-61
2022/04/23 12:21:37;;;;;;;9.20;6.47;;;22.30;34.60;;;;;;5011296;28;20147;-60
2022/04/23 12:24:04;;;;;;;10.80;7.13;;;22.10;34.80;;;;;;5010947;28;20620;-60
2022/04/23 12:26:35;;;;;;;9.52;7.20;;;22.30;35.30;;;;;;5020016;28;20489;-60
2022/04/23 12:43:20;;;;;;;9.05;8.10;;;22.70;33.80;;;;;;5012061;28;20045;-62
2022/04/23 12:45:47;;;;;;;9.30;7.47;;;23.10;34.00;;;;;;5012370;28;20042;-59
2022/04/23 12:48:14;;;;;;;8.43;6.85;;;23.00;33.40;;;;;;5006218;28;20859;-59
2022/04/23 12:50:42;;;;;;;7.30;6.60;;;22.90;33.70;;;;;;5012888;28;20053;-59
2022/04/23 12:53:09;;;;;;;8.57;6.60;;;23.00;33.60;;;;;;5014114;28;20056;-59
2022/04/23 12:55:37;;;;;;;8.63;6.47;;;23.50;33.80;;;;;;5008714;28;20073;-59
2022/04/23 12:58:05;;;;;;;8.38;6.30;;;22.80;32.90;;;;;;5012480;28;20053;-59
2022/04/23 13:00:42;;;;;;;15.25;12.95;;;23.10;33.00;;;;;;5019548;28;20056;-59
2022/04/23 13:06:01;;;;;;;17.88;15.80;;;23.00;32.50;;;;;;4986595;28;20129;-62
2022/04/23 13:11:30;;;;;;;12.40;9.93;;;23.70;32.20;;;;;;5021432;28;20069;-67
2022/04/23 13:13:59;;;;;;;7.25;6.55;;;23.70;31.80;;;;;;5019135;28;20096;-62
2022/04/23 13:16:26;;;;;;;11.25;6.85;;;23.50;32.00;;;;;;5012105;28;20050;-62
2022/04/23 13:18:54;;;;;;;8.35;6.50;;;24.00;31.50;;;;;;4986604;28;20046;-62
2022/04/23 13:21:26;;;;;;;10.45;8.02;;;24.10;30.50;;;;;;5015377;28;20156;-59
2022/04/23 13:23:53;;;;;;;11.90;6.93;;;24.10;31.00;;;;;;5011658;28;20056;-62
2022/04/23 13:26:20;;;;;;;8.70;7.05;;;23.50;31.70;;;;;;5021180;28;20127;-62
2022/04/23 13:28:47;;;;;;;7.70;6.60;;;23.70;32.00;;;;;;5007182;28;20080;-60
2022/04/23 13:31:14;;;;;;;10.02;8.95;;;23.00;32.20;;;;;;5014993;28;20132;-61